sensor_id;sensor_type;location;lat;lon;timestamp;pressure;altitude;pressure_sealevel;temperature;humidity
54910;BME280;63189;51.240;9.964;2022-08-30T00:01:04;98323.94;;;15.24;67.89
54910;BME280;63189;51.240;9.964;2022-08-30T00:03:37;98344.34;;;15.38;70.09
54910;BME280;63189;51.240;9.964;2022-08-30T00:06:06;98344.50;;;15.35;69.84
54910;BME280;63189;51.240;9.964;2022-08-30T00:08:33;98330.16;;;15.21;69.42
54910;BME280;63189;51.240;9.964;2022-08-30T00:10:59;98352.38;;;15.35;69.71
54910;BME280;63189;51.240;9.964;2022-08-30T00:13:25;98348.28;;;15.27;69.85
54910;BME280;63189;51.240;9.964;2022-08-30T00:15:51;98333.31;;;15.09;70.35
54910;BME280;63189;51.240;9.964;2022-08-30T00:18:17;98360.03;;;15.19;70.67
54910;BME280;63189;51.240;9.964;2022-08-30T00:20:44;98343.88;;;15.08;71.38
54910;BME280;63189;51.240;9.964;2022-08-30T00:23:10;98347.75;;;14.99;71.17
54910;BME280;63189;51.240;9.964;2022-08-30T00:25:37;98344.94;;;15.04;71.24
54910;BME280;63189;51.240;9.964;2022-08-30T00:28:02;98299.69;;;14.77;70.92
54910;BME280;63189;51.240;9.964;2022-08-30T00:30:28;98309.28;;;14.78;71.43
54910;BME280;63189;51.240;9.964;2022-08-30T00:32:54;98347.03;;;14.95;71.40
54910;BME280;63189;51.240;9.964;2022-08-30T00:35:21;98342.84;;;14.91;71.67
54910;BME280;63189;51.240;9.964;2022-08-30T00:37:47;98345.56;;;14.88;71.78
54910;BME280;63189;51.240;9.964;2022-08-30T00:40:13;98345.91;;;14.81;72.24
54910;BME280;63189;51.240;9.964;2022-08-30T00:42:40;98349.63;;;14.75;72.42
54910;BME280;63189;51.240;9.964;2022-08-30T00:47:40;98344.63;;;14.69;72.84
54910;BME280;63189;51.240;9.964;2022-08-30T00:50:06;98342.06;;;14.67;72.92
54910;BME280;63189;51.240;9.964;2022-08-30T00:52:34;98329.38;;;14.57;72.59
54910;BME280;63189;51.240;9.964;2022-08-30T00:55:01;98312.13;;;14.51;72.53
54910;BME280;63189;51.240;9.964;2022-08-30T00:57:29;98313.06;;;14.50;73.11
54910;BME280;63189;51.240;9.964;2022-08-30T00:59:55;98322.25;;;14.60;72.76
54910;BME280;63189;51.240;9.964;2022-08-30T01:02:22;98335.09;;;14.66;72.37
54910;BME280;63189;51.240;9.964;2022-08-30T01:04:49;98343.47;;;14.76;72.95
54910;BME280;63189;51.240;9.964;2022-08-30T01:07:17;98342.69;;;14.74;72.98
54910;BME280;63189;51.240;9.964;2022-08-30T01:09:43;98349.56;;;14.77;72.93
54910;BME280;63189;51.240;9.964;2022-08-30T01:12:09;98332.19;;;14.74;72.87
54910;BME280;63189;51.240;9.964;2022-08-30T01:14:36;98340.91;;;14.75;73.18
54910;BME280;63189;51.240;9.964;2022-08-30T01:17:02;98314.38;;;14.60;72.81
54910;BME280;63189;51.240;9.964;2022-08-30T01:22:10;98329.94;;;14.65;73.05
54910;BME280;63189;51.240;9.964;2022-08-30T01:24:43;98336.94;;;14.64;73.56
54910;BME280;63189;51.240;9.964;2022-08-30T01:27:13;98349.88;;;14.69;73.18
54910;BME280;63189;51.240;9.964;2022-08-30T01:29:39;98351.53;;;14.71;73.09
54910;BME280;63189;51.240;9.964;2022-08-30T01:32:21;98337.66;;;14.68;73.90
54910;BME280;63189;51.240;9.964;2022-08-30T01:34:47;98339.38;;;14.69;73.32
54910;BME280;63189;51.240;9.964;2022-08-30T01:37:15;98345.50;;;14.69;73.43
54910;BME280;63189;51.240;9.964;2022-08-30T01:39:44;98324.97;;;14.57;73.44
54910;BME280;63189;51.240;9.964;2022-08-30T01:42:10;98328.72;;;14.52;73.02
54910;BME280;63189;51.240;9.964;2022-08-30T01:44:36;98345.88;;;14.60;73.16
54910;BME280;63189;51.240;9.964;2022-08-30T01:47:02;98302.13;;;14.37;72.84
54910;BME280;63189;51.240;9.964;2022-08-30T01:49:27;98327.09;;;14.49;72.75
54910;BME280;63189;51.240;9.964;2022-08-30T01:51:52;98339.28;;;14.50;73.21
54910;BME280;63189;51.240;9.964;2022-08-30T01:54:18;98296.03;;;14.15;73.66
54910;BME280;63189;51.240;9.964;2022-08-30T01:56:43;98310.00;;;14.15;73.49
54910;BME280;63189;51.240;9.964;2022-08-30T01:59:09;98341.81;;;14.30;73.55
54910;BME280;63189;51.240;9.964;2022-08-30T02:01:35;98349.69;;;14.30;73.72
54910;BME280;63189;51.240;9.964;2022-08-30T02:04:01;98355.00;;;14.28;73.81
54910;BME280;63189;51.240;9.964;2022-08-30T02:06:28;98362.78;;;14.30;73.66
54910;BME280;63189;51.240;9.964;2022-08-30T02:08:53;98363.53;;;14.33;73.82
54910;BME280;63189;51.240;9.964;2022-08-30T02:11:19;98341.47;;;14.15;74.18
54910;BME280;63189;51.240;9.964;2022-08-30T02:13:45;98356.78;;;14.26;74.34
54910;BME280;63189;51.240;9.964;2022-08-30T02:16:14;98359.38;;;14.28;74.64
54910;BME280;63189;51.240;9.964;2022-08-30T02:18:40;98326.91;;;14.08;74.27
54910;BME280;63189;51.240;9.964;2022-08-30T02:21:06;98326.09;;;14.06;74.47
54910;BME280;63189;51.240;9.964;2022-08-30T02:23:32;98317.50;;;14.03;74.58
54910;BME280;63189;51.240;9.964;2022-08-30T02:25:57;98327.63;;;14.12;74.22
54910;BME280;63189;51.240;9.964;2022-08-30T02:28:23;98340.69;;;14.13;74.70
54910;BME280;63189;51.240;9.964;2022-08-30T02:30:51;98327.81;;;14.07;74.78
54910;BME280;63189;51.240;9.964;2022-08-30T02:33:17;98350.09;;;14.19;75.02
54910;BME280;63189;51.240;9.964;2022-08-30T02:35:42;98351.13;;;14.15;75.41
54910;BME280;63189;51.240;9.964;2022-08-30T02:38:07;98338.34;;;14.06;75.60
54910;BME280;63189;51.240;9.964;2022-08-30T02:40:33;98334.50;;;13.93;75.53
54910;BME280;63189;51.240;9.964;2022-08-30T02:42:59;98345.09;;;13.90;76.18
54910;BME280;63189;51.240;9.964;2022-08-30T02:45:25;98338.31;;;13.84;76.23
54910;BME280;63189;51.240;9.964;2022-08-30T02:47:51;98343.03;;;13.74;76.51
54910;BME280;63189;51.240;9.964;2022-08-30T02:50:17;98323.50;;;13.60;76.74
54910;BME280;63189;51.240;9.964;2022-08-30T02:52:43;98301.38;;;13.43;77.04
54910;BME280;63189;51.240;9.964;2022-08-30T02:55:09;98300.66;;;13.40;76.81
54910;BME280;63189;51.240;9.964;2022-08-30T02:57:35;98337.72;;;13.52;76.75
54910;BME280;63189;51.240;9.964;2022-08-30T03:00:05;98330.09;;;13.46;77.26
54910;BME280;63189;51.240;9.964;2022-08-30T03:02:30;98326.19;;;13.33;76.93
54910;BME280;63189;51.240;9.964;2022-08-30T03:04:55;98340.00;;;13.38;76.70
54910;BME280;63189;51.240;9.964;2022-08-30T03:07:21;98339.88;;;13.41;76.84
54910;BME280;63189;51.240;9.964;2022-08-30T03:09:47;98331.16;;;13.41;76.89
54910;BME280;63189;51.240;9.964;2022-08-30T03:12:12;98332.81;;;13.43;77.28
54910;BME280;63189;51.240;9.964;2022-08-30T03:14:38;98339.16;;;13.38;77.35
54910;BME280;63189;51.240;9.964;2022-08-30T03:17:05;98334.97;;;13.32;77.25
54910;BME280;63189;51.240;9.964;2022-08-30T03:19:32;98336.91;;;13.27;77.83
54910;BME280;63189;51.240;9.964;2022-08-30T03:21:58;98331.88;;;13.21;77.78
54910;BME280;63189;51.240;9.964;2022-08-30T03:24:23;98329.09;;;13.25;77.70
54910;BME280;63189;51.240;9.964;2022-08-30T03:26:48;98303.34;;;13.12;77.74
54910;BME280;63189;51.240;9.964;2022-08-30T03:29:14;98308.44;;;13.16;78.44
54910;BME280;63189;51.240;9.964;2022-08-30T03:31:39;98326.38;;;13.28;79.18
54910;BME280;63189;51.240;9.964;2022-08-30T03:34:05;98322.03;;;13.27;79.78
54910;BME280;63189;51.240;9.964;2022-08-30T03:36:31;98331.44;;;13.33;80.18
54910;BME280;63189;51.240;9.964;2022-08-30T03:38:57;98330.59;;;13.33;80.19
54910;BME280;63189;51.240;9.964;2022-08-30T03:41:23;98331.66;;;13.27;79.93
54910;BME280;63189;51.240;9.964;2022-08-30T03:43:49;98333.50;;;13.25;80.04
54910;BME280;63189;51.240;9.964;2022-08-30T03:46:14;98344.06;;;13.22;80.14
54910;BME280;63189;51.240;9.964;2022-08-30T03:48:40;98344.16;;;13.19;80.12
54910;BME280;63189;51.240;9.964;2022-08-30T03:51:06;98300.56;;;12.91;80.73
54910;BME280;63189;51.240;9.964;2022-08-30T03:53:31;98288.63;;;12.84;80.48
54910;BME280;63189;51.240;9.964;2022-08-30T03:55:57;98341.69;;;13.14;80.67
54910;BME280;63189;51.240;9.964;2022-08-30T03:58:22;98335.81;;;13.08;80.94
54910;BME280;63189;51.240;9.964;2022-08-30T04:00:48;98334.09;;;13.07;82.54
54910;BME280;63189;51.240;9.964;2022-08-30T04:03:13;98324.66;;;13.03;81.94
54910;BME280;63189;51.240;9.964;2022-08-30T04:05:39;98324.59;;;13.04;81.47
54910;BME280;63189;51.240;9.964;2022-08-30T04:08:04;98344.56;;;13.07;80.99
54910;BME280;63189;51.240;9.964;2022-08-30T04:10:30;98342.78;;;13.07;80.65
54910;BME280;63189;51.240;9.964;2022-08-30T04:12:56;98339.31;;;13.07;81.33
54910;BME280;63189;51.240;9.964;2022-08-30T04:15:21;98341.16;;;13.05;81.33
54910;BME280;63189;51.240;9.964;2022-08-30T04:17:47;98340.19;;;13.07;81.10
54910;BME280;63189;51.240;9.964;2022-08-30T04:20:13;98336.09;;;12.98;80.82
54910;BME280;63189;51.240;9.964;2022-08-30T04:22:38;98344.75;;;13.00;81.21
54910;BME280;63189;51.240;9.964;2022-08-30T04:25:04;98340.69;;;12.92;81.93
54910;BME280;63189;51.240;9.964;2022-08-30T04:27:30;98340.84;;;12.87;83.28
54910;BME280;63189;51.240;9.964;2022-08-30T04:29:55;98335.72;;;12.84;81.97
54910;BME280;63189;51.240;9.964;2022-08-30T04:32:21;98342.56;;;12.88;82.20
54910;BME280;63189;51.240;9.964;2022-08-30T04:34:46;98343.59;;;12.84;82.05
54910;BME280;63189;51.240;9.964;2022-08-30T04:37:11;98340.31;;;12.78;82.45
54910;BME280;63189;51.240;9.964;2022-08-30T04:39:37;98336.78;;;12.79;82.51
54910;BME280;63189;51.240;9.964;2022-08-30T04:42:03;98344.78;;;12.74;82.70
54910;BME280;63189;51.240;9.964;2022-08-30T04:44:30;98345.59;;;12.76;83.03
54910;BME280;63189;51.240;9.964;2022-08-30T04:46:56;98347.47;;;12.71;82.76
54910;BME280;63189;51.240;9.964;2022-08-30T04:49:21;98349.53;;;12.63;83.18
54910;BME280;63189;51.240;9.964;2022-08-30T04:51:47;98354.53;;;12.69;82.89
54910;BME280;63189;51.240;9.964;2022-08-30T04:54:12;98364.31;;;12.64;83.22
54910;BME280;63189;51.240;9.964;2022-08-30T04:56:37;98370.34;;;12.66;82.89
54910;BME280;63189;51.240;9.964;2022-08-30T04:59:03;98365.97;;;12.66;82.87
54910;BME280;63189;51.240;9.964;2022-08-30T05:01:31;98376.47;;;12.65;83.33
54910;BME280;63189;51.240;9.964;2022-08-30T05:03:57;98379.09;;;12.65;83.39
54910;BME280;63189;51.240;9.964;2022-08-30T05:06:24;98374.66;;;12.67;83.30
54910;BME280;63189;51.240;9.964;2022-08-30T05:08:52;98385.63;;;12.78;83.14
54910;BME280;63189;51.240;9.964;2022-08-30T05:11:18;98376.81;;;12.82;83.22
54910;BME280;63189;51.240;9.964;2022-08-30T05:13:44;98369.03;;;12.79;82.96
54910;BME280;63189;51.240;9.964;2022-08-30T05:16:10;98379.19;;;12.88;82.93
54910;BME280;63189;51.240;9.964;2022-08-30T05:18:44;98378.94;;;12.96;82.86
54910;BME280;63189;51.240;9.964;2022-08-30T05:21:17;98378.00;;;12.98;83.61
54910;BME280;63189;51.240;9.964;2022-08-30T05:23:43;98387.41;;;13.04;83.41
54910;BME280;63189;51.240;9.964;2022-08-30T05:26:21;98382.91;;;13.08;83.28
54910;BME280;63189;51.240;9.964;2022-08-30T05:28:47;98392.53;;;13.07;83.74
54910;BME280;63189;51.240;9.964;2022-08-30T05:31:16;98384.63;;;13.09;83.75
54910;BME280;63189;51.240;9.964;2022-08-30T05:33:42;98391.47;;;13.13;83.68
54910;BME280;63189;51.240;9.964;2022-08-30T05:36:11;98390.72;;;13.09;84.31
54910;BME280;63189;51.240;9.964;2022-08-30T05:38:37;98378.78;;;13.00;84.29
54910;BME280;63189;51.240;9.964;2022-08-30T05:41:04;98395.09;;;13.09;84.73
54910;BME280;63189;51.240;9.964;2022-08-30T05:43:29;98393.19;;;13.14;84.89
54910;BME280;63189;51.240;9.964;2022-08-30T05:45:59;98394.78;;;13.18;85.03
54910;BME280;63189;51.240;9.964;2022-08-30T05:48:25;98347.59;;;12.94;84.42
54910;BME280;63189;51.240;9.964;2022-08-30T05:51:00;98368.13;;;13.07;85.06
54910;BME280;63189;51.240;9.964;2022-08-30T05:53:25;98385.88;;;13.25;84.63
54910;BME280;63189;51.240;9.964;2022-08-30T05:55:51;98394.09;;;13.39;84.17
54910;BME280;63189;51.240;9.964;2022-08-30T05:58:17;98394.56;;;13.50;84.61
54910;BME280;63189;51.240;9.964;2022-08-30T06:00:42;98378.47;;;13.61;84.21
54910;BME280;63189;51.240;9.964;2022-08-30T06:03:07;98389.22;;;13.78;84.02
54910;BME280;63189;51.240;9.964;2022-08-30T06:05:36;98392.03;;;13.96;83.51
54910;BME280;63189;51.240;9.964;2022-08-30T06:08:01;98388.22;;;14.04;82.93
54910;BME280;63189;51.240;9.964;2022-08-30T06:10:27;98388.69;;;14.15;83.11
54910;BME280;63189;51.240;9.964;2022-08-30T06:12:52;98358.25;;;14.11;83.23
54910;BME280;63189;51.240;9.964;2022-08-30T06:15:18;98364.50;;;14.31;82.42
54910;BME280;63189;51.240;9.964;2022-08-30T06:17:44;98381.13;;;14.53;81.68
54910;BME280;63189;51.240;9.964;2022-08-30T06:20:10;98384.75;;;14.72;81.30
54910;BME280;63189;51.240;9.964;2022-08-30T06:22:35;98392.66;;;14.93;81.05
54910;BME280;63189;51.240;9.964;2022-08-30T06:25:03;98387.97;;;15.01;nan
54910;BME280;63189;51.240;9.964;2022-08-30T06:27:29;98368.66;;;15.02;79.99
54910;BME280;63189;51.240;9.964;2022-08-30T06:29:55;98366.06;;;15.00;79.62
54910;BME280;63189;51.240;9.964;2022-08-30T06:32:21;98335.34;;;14.82;79.50
54910;BME280;63189;51.240;9.964;2022-08-30T06:34:46;98355.91;;;14.93;79.21
54910;BME280;63189;51.240;9.964;2022-08-30T06:37:12;98364.06;;;15.07;78.75
54910;BME280;63189;51.240;9.964;2022-08-30T06:39:39;98371.16;;;15.25;78.70
54910;BME280;63189;51.240;9.964;2022-08-30T06:42:04;98392.81;;;15.51;78.04
54910;BME280;63189;51.240;9.964;2022-08-30T06:44:30;98385.59;;;15.56;77.92
54910;BME280;63189;51.240;9.964;2022-08-30T06:47:00;98393.09;;;15.85;77.16
54910;BME280;63189;51.240;9.964;2022-08-30T06:49:25;98385.16;;;16.06;76.59
54910;BME280;63189;51.240;9.964;2022-08-30T06:51:52;98372.56;;;16.12;75.38
54910;BME280;63189;51.240;9.964;2022-08-30T06:54:17;98399.03;;;16.47;74.96
54910;BME280;63189;51.240;9.964;2022-08-30T06:56:42;98348.88;;;16.31;74.30
54910;BME280;63189;51.240;9.964;2022-08-30T06:59:08;98401.78;;;16.82;73.82
54910;BME280;63189;51.240;9.964;2022-08-30T07:01:34;98393.44;;;17.08;73.04
54910;BME280;63189;51.240;9.964;2022-08-30T07:03:59;98361.28;;;17.19;72.39
54910;BME280;63189;51.240;9.964;2022-08-30T07:06:26;98341.28;;;17.32;71.12
54910;BME280;63189;51.240;9.964;2022-08-30T07:08:52;98347.25;;;17.53;70.02
54910;BME280;63189;51.240;9.964;2022-08-30T07:13:51;98397.13;;;18.24;68.25
54910;BME280;63189;51.240;9.964;2022-08-30T07:16:16;98397.88;;;18.41;68.22
54910;BME280;63189;51.240;9.964;2022-08-30T07:18:41;98384.00;;;18.54;67.40
54910;BME280;63189;51.240;9.964;2022-08-30T07:21:30;98399.53;;;18.75;66.95
54910;BME280;63189;51.240;9.964;2022-08-30T07:23:57;98404.47;;;18.97;66.15
54910;BME280;63189;51.240;9.964;2022-08-30T07:26:26;98371.72;;;19.00;65.41
54910;BME280;63189;51.240;9.964;2022-08-30T07:28:52;98402.22;;;19.36;64.94
54910;BME280;63189;51.240;9.964;2022-08-30T07:31:18;98411.72;;;19.54;64.65
54910;BME280;63189;51.240;9.964;2022-08-30T07:33:44;98412.72;;;19.67;64.06
54910;BME280;63189;51.240;9.964;2022-08-30T07:36:10;98415.31;;;19.83;63.21
54910;BME280;63189;51.240;9.964;2022-08-30T07:38:37;98414.34;;;19.98;63.00
54910;BME280;63189;51.240;9.964;2022-08-30T07:41:04;98401.13;;;20.12;62.12
54910;BME280;63189;51.240;9.964;2022-08-30T07:43:30;98386.44;;;20.21;61.94
54910;BME280;63189;51.240;9.964;2022-08-30T07:46:01;98414.16;;;20.58;61.39
54910;BME280;63189;51.240;9.964;2022-08-30T07:48:27;98407.84;;;20.73;60.96
54910;BME280;63189;51.240;9.964;2022-08-30T07:50:52;98406.88;;;20.89;60.09
54910;BME280;63189;51.240;9.964;2022-08-30T07:53:19;98393.31;;;20.93;59.96
54910;BME280;63189;51.240;9.964;2022-08-30T07:55:44;98362.06;;;20.98;58.89
54910;BME280;63189;51.240;9.964;2022-08-30T07:58:09;98395.16;;;21.32;59.22
54910;BME280;63189;51.240;9.964;2022-08-30T08:00:35;98398.38;;;21.50;58.89
54910;BME280;63189;51.240;9.964;2022-08-30T08:03:07;98412.09;;;21.70;57.42
54910;BME280;63189;51.240;9.964;2022-08-30T08:05:40;98381.63;;;21.63;56.36
54910;BME280;63189;51.240;9.964;2022-08-30T08:08:06;98396.94;;;21.72;57.37
54910;BME280;63189;51.240;9.964;2022-08-30T08:10:32;98399.47;;;21.86;56.72
54910;BME280;63189;51.240;9.964;2022-08-30T08:12:58;98392.16;;;22.02;56.43
54910;BME280;63189;51.240;9.964;2022-08-30T08:15:25;98403.09;;;22.23;55.83
54910;BME280;63189;51.240;9.964;2022-08-30T08:17:50;98393.09;;;22.27;54.91
54910;BME280;63189;51.240;9.964;2022-08-30T08:20:16;98390.50;;;22.38;55.01
54910;BME280;63189;51.240;9.964;2022-08-30T08:22:41;98390.50;;;22.38;55.37
54910;BME280;63189;51.240;9.964;2022-08-30T08:25:07;98366.13;;;22.20;55.46
54910;BME280;63189;51.240;9.964;2022-08-30T08:27:32;98368.41;;;22.37;54.36
54910;BME280;63189;51.240;9.964;2022-08-30T08:29:58;98402.00;;;22.75;54.50
54910;BME280;63189;51.240;9.964;2022-08-30T08:32:23;98379.91;;;22.74;54.28
54910;BME280;63189;51.240;9.964;2022-08-30T08:34:48;98386.56;;;22.93;52.85
54910;BME280;63189;51.240;9.964;2022-08-30T08:37:13;98412.28;;;23.16;53.74
54910;BME280;63189;51.240;9.964;2022-08-30T08:39:39;98387.53;;;23.03;52.54
54910;BME280;63189;51.240;9.964;2022-08-30T08:42:15;98410.75;;;23.25;52.41
54910;BME280;63189;51.240;9.964;2022-08-30T08:49:57;98374.31;;;23.14;52.55
54910;BME280;63189;51.240;9.964;2022-08-30T08:52:36;98375.69;;;23.31;50.83
54910;BME280;63189;51.240;9.964;2022-08-30T08:55:25;98356.97;;;23.44;52.12
54910;BME280;63189;51.240;9.964;2022-08-30T08:57:51;98375.22;;;23.72;51.69
54910;BME280;63189;51.240;9.964;2022-08-30T09:00:16;98399.94;;;23.85;50.71
54910;BME280;63189;51.240;9.964;2022-08-30T09:02:47;98375.97;;;23.85;50.35
54910;BME280;63189;51.240;9.964;2022-08-30T09:05:21;98368.84;;;23.97;49.64
54910;BME280;63189;51.240;9.964;2022-08-30T09:08:00;98398.03;;;24.21;49.29
54910;BME280;63189;51.240;9.964;2022-08-30T09:10:27;98395.00;;;24.26;49.97
54910;BME280;63189;51.240;9.964;2022-08-30T09:12:54;98398.06;;;24.32;48.58
54910;BME280;63189;51.240;9.964;2022-08-30T09:15:31;98406.28;;;24.18;48.12
54910;BME280;63189;51.240;9.964;2022-08-30T09:18:06;98398.63;;;24.25;48.41
54910;BME280;63189;51.240;9.964;2022-08-30T09:20:42;98400.72;;;24.43;48.67
54910;BME280;63189;51.240;9.964;2022-08-30T09:25:50;98396.84;;;24.36;48.40
54910;BME280;63189;51.240;9.964;2022-08-30T09:28:24;98388.59;;;24.62;48.75
54910;BME280;63189;51.240;9.964;2022-08-30T09:31:24;98367.72;;;24.67;46.75
54910;BME280;63189;51.240;9.964;2022-08-30T09:33:54;98385.56;;;25.10;47.47
54910;BME280;63189;51.240;9.964;2022-08-30T09:36:29;98371.25;;;25.31;46.24
54910;BME280;63189;51.240;9.964;2022-08-30T09:39:03;98368.41;;;25.44;46.02
54910;BME280;63189;51.240;9.964;2022-08-30T09:41:41;98382.34;;;25.69;45.10
54910;BME280;63189;51.240;9.964;2022-08-30T09:44:23;98379.13;;;25.86;44.95
54910;BME280;63189;51.240;9.964;2022-08-30T09:46:58;98359.44;;;25.87;44.77
54910;BME280;63189;51.240;9.964;2022-08-30T09:49:40;98392.06;;;26.21;42.97
54910;BME280;63189;51.240;9.964;2022-08-30T09:55:26;98379.16;;;26.26;42.36
54910;BME280;63189;51.240;9.964;2022-08-30T10:00:56;98375.66;;;26.35;42.35
54910;BME280;63189;51.240;9.964;2022-08-30T10:06:33;98361.31;;;26.27;42.38
54910;BME280;63189;51.240;9.964;2022-08-30T10:09:21;98367.50;;;26.27;42.39
54910;BME280;63189;51.240;9.964;2022-08-30T10:12:05;98368.84;;;26.42;42.66
54910;BME280;63189;51.240;9.964;2022-08-30T10:26:22;98358.13;;;25.60;43.17
54910;BME280;63189;51.240;9.964;2022-08-30T10:28:50;98361.63;;;25.40;43.05
54910;BME280;63189;51.240;9.964;2022-08-30T10:31:24;98356.44;;;25.59;43.66
54910;BME280;63189;51.240;9.964;2022-08-30T10:33:55;98365.63;;;25.46;44.27
54910;BME280;63189;51.240;9.964;2022-08-30T10:36:30;98341.38;;;25.17;44.94
54910;BME280;63189;51.240;9.964;2022-08-30T10:38:57;98358.09;;;25.19;45.70
54910;BME280;63189;51.240;9.964;2022-08-30T10:44:10;98360.88;;;24.85;45.79
54910;BME280;63189;51.240;9.964;2022-08-30T10:49:28;98344.25;;;24.50;46.87
54910;BME280;63189;51.240;9.964;2022-08-30T10:52:05;98346.06;;;24.38;47.09
54910;BME280;63189;51.240;9.964;2022-08-30T10:54:41;98355.63;;;24.52;47.98
54910;BME280;63189;51.240;9.964;2022-08-30T10:57:11;98341.97;;;24.77;46.43
54910;BME280;63189;51.240;9.964;2022-08-30T10:59:42;98347.22;;;25.11;45.26
54910;BME280;63189;51.240;9.964;2022-08-30T11:13:22;98340.91;;;25.95;41.87
54910;BME280;63189;51.240;9.964;2022-08-30T11:15:55;98346.22;;;26.16;42.63
54910;BME280;63189;51.240;9.964;2022-08-30T11:18:22;98337.31;;;26.15;42.09
54910;BME280;63189;51.240;9.964;2022-08-30T11:20:50;98341.56;;;26.18;41.88
54910;BME280;63189;51.240;9.964;2022-08-30T11:23:26;98325.25;;;26.21;41.91
54910;BME280;63189;51.240;9.964;2022-08-30T11:26:09;98293.84;;;26.13;41.89
54910;BME280;63189;51.240;9.964;2022-08-30T11:31:06;98336.50;;;26.25;42.56
54910;BME280;63189;51.240;9.964;2022-08-30T11:41:41;98335.66;;;25.42;43.43
54910;BME280;63189;51.240;9.964;2022-08-30T11:46:46;98321.34;;;25.22;42.67
54910;BME280;63189;51.240;9.964;2022-08-30T11:54:47;98328.03;;;25.17;42.53
54910;BME280;63189;51.240;9.964;2022-08-30T12:02:54;98319.31;;;25.15;40.87
54910;BME280;63189;51.240;9.964;2022-08-30T12:11:01;98314.38;;;24.99;39.47
54910;BME280;63189;51.240;9.964;2022-08-30T12:16:01;98310.66;;;24.90;40.92
54910;BME280;63189;51.240;9.964;2022-08-30T12:26:34;98304.78;;;24.75;40.69
54910;BME280;63189;51.240;9.964;2022-08-30T12:34:08;98302.69;;;25.32;39.83
54910;BME280;63189;51.240;9.964;2022-08-30T12:44:43;98298.25;;;25.63;38.48
54910;BME280;63189;51.240;9.964;2022-08-30T12:47:11;98286.28;;;25.57;37.75
54910;BME280;63189;51.240;9.964;2022-08-30T12:49:38;98284.06;;;25.62;38.23
54910;BME280;63189;51.240;9.964;2022-08-30T12:52:22;98291.22;;;25.62;37.53
54910;BME280;63189;51.240;9.964;2022-08-30T13:01:09;98278.88;;;25.40;39.42
54910;BME280;63189;51.240;9.964;2022-08-30T13:02:58;98279.59;;;25.42;39.19
54910;BME280;63189;51.240;9.964;2022-08-30T13:08:17;98283.50;;;25.38;38.71
54910;BME280;63189;51.240;9.964;2022-08-30T13:11:05;98276.34;;;25.39;38.26
54910;BME280;63189;51.240;9.964;2022-08-30T13:13:44;98277.66;;;25.44;39.10
54910;BME280;63189;51.240;9.964;2022-08-30T13:16:19;98281.66;;;25.59;39.09
54910;BME280;63189;51.240;9.964;2022-08-30T13:18:47;98268.63;;;25.66;38.33
54910;BME280;63189;51.240;9.964;2022-08-30T13:21:32;98267.31;;;25.60;37.96
54910;BME280;63189;51.240;9.964;2022-08-30T13:24:01;98270.63;;;25.74;38.87
54910;BME280;63189;51.240;9.964;2022-08-30T13:26:30;98268.88;;;25.63;37.99
54910;BME280;63189;51.240;9.964;2022-08-30T13:28:59;98281.31;;;25.74;38.29
54910;BME280;63189;51.240;9.964;2022-08-30T13:31:26;98251.28;;;25.60;38.39
54910;BME280;63189;51.240;9.964;2022-08-30T13:33:53;98274.22;;;25.63;39.29
54910;BME280;63189;51.240;9.964;2022-08-30T13:36:21;98270.13;;;25.59;38.66
54910;BME280;63189;51.240;9.964;2022-08-30T13:38:48;98262.47;;;25.45;38.34
54910;BME280;63189;51.240;9.964;2022-08-30T13:41:14;98243.81;;;25.24;39.26
54910;BME280;63189;51.240;9.964;2022-08-30T13:43:40;98261.09;;;25.29;38.70
54910;BME280;63189;51.240;9.964;2022-08-30T13:46:06;98265.59;;;25.29;39.25
54910;BME280;63189;51.240;9.964;2022-08-30T13:48:33;98248.97;;;25.16;39.36
54910;BME280;63189;51.240;9.964;2022-08-30T13:50:59;98273.31;;;25.22;39.26
54910;BME280;63189;51.240;9.964;2022-08-30T13:53:24;98244.59;;;25.15;39.39
54910;BME280;63189;51.240;9.964;2022-08-30T13:55:50;98263.66;;;25.31;39.18
54910;BME280;63189;51.240;9.964;2022-08-30T13:58:16;98264.25;;;25.35;38.35
54910;BME280;63189;51.240;9.964;2022-08-30T14:00:42;98242.00;;;25.24;38.99
54910;BME280;63189;51.240;9.964;2022-08-30T14:03:07;98269.22;;;25.49;38.53
54910;BME280;63189;51.240;9.964;2022-08-30T14:05:35;98246.84;;;25.40;38.18
54910;BME280;63189;51.240;9.964;2022-08-30T14:08:02;98243.03;;;25.33;37.87
54910;BME280;63189;51.240;9.964;2022-08-30T14:10:29;98259.22;;;25.41;38.45
54910;BME280;63189;51.240;9.964;2022-08-30T14:12:54;98247.19;;;25.26;37.62
54910;BME280;63189;51.240;9.964;2022-08-30T14:15:20;98258.31;;;25.31;38.11
54910;BME280;63189;51.240;9.964;2022-08-30T14:17:45;98253.81;;;25.31;38.06
54910;BME280;63189;51.240;9.964;2022-08-30T14:20:11;98261.53;;;25.25;38.38
54910;BME280;63189;51.240;9.964;2022-08-30T14:22:38;98260.00;;;25.11;39.30
54910;BME280;63189;51.240;9.964;2022-08-30T14:25:04;98245.22;;;24.86;40.30
54910;BME280;63189;51.240;9.964;2022-08-30T14:27:30;98249.63;;;24.76;40.50
54910;BME280;63189;51.240;9.964;2022-08-30T14:29:56;98258.66;;;24.64;41.06
54910;BME280;63189;51.240;9.964;2022-08-30T14:32:22;98250.81;;;24.51;41.41
54910;BME280;63189;51.240;9.964;2022-08-30T14:34:47;98264.19;;;24.40;41.50
54910;BME280;63189;51.240;9.964;2022-08-30T14:37:13;98231.47;;;24.27;41.90
54910;BME280;63189;51.240;9.964;2022-08-30T14:39:39;98254.97;;;24.44;42.35
54910;BME280;63189;51.240;9.964;2022-08-30T14:42:05;98252.16;;;24.45;42.45
54910;BME280;63189;51.240;9.964;2022-08-30T14:44:31;98257.97;;;24.51;43.05
54910;BME280;63189;51.240;9.964;2022-08-30T14:46:57;98241.91;;;24.41;43.74
54910;BME280;63189;51.240;9.964;2022-08-30T14:49:23;98254.38;;;24.29;44.19
54910;BME280;63189;51.240;9.964;2022-08-30T14:51:49;98261.53;;;24.29;44.63
54910;BME280;63189;51.240;9.964;2022-08-30T14:54:16;98258.63;;;24.21;44.66
54910;BME280;63189;51.240;9.964;2022-08-30T14:56:42;98267.47;;;24.21;44.86
54910;BME280;63189;51.240;9.964;2022-08-30T14:59:35;98259.00;;;24.05;44.87